createdAt,value
2019-03-10T00:00:43.935Z,8.11
2019-03-10T00:03:12.872Z,8.15
2019-03-10T00:05:39.924Z,8.16
2019-03-10T00:08:07.950Z,8.21
2019-03-10T00:10:35.658Z,8.32
2019-03-10T00:13:02.699Z,8.23
2019-03-10T00:15:29.752Z,8.12
2019-03-10T00:17:57.104Z,8.01
2019-03-10T00:20:24.173Z,8.04
2019-03-10T00:22:51.209Z,8.03
2019-03-10T00:25:18.558Z,8.01
2019-03-10T00:27:45.617Z,8.00
2019-03-10T00:30:12.658Z,8.04
2019-03-10T00:32:40.030Z,8.11
2019-03-10T00:35:07.076Z,8.10
2019-03-10T00:37:34.122Z,8.07
2019-03-10T00:40:02.481Z,8.00
2019-03-10T00:42:29.614Z,8.06
2019-03-10T00:44:56.645Z,8.07
2019-03-10T00:47:23.700Z,8.04
2019-03-10T00:49:50.979Z,7.96
2019-03-10T00:52:18.338Z,7.92
2019-03-10T00:54:45.697Z,7.93
2019-03-10T00:57:12.746Z,7.93
2019-03-10T00:59:42.221Z,7.92
2019-03-10T01:02:09.600Z,7.87
2019-03-10T01:04:36.639Z,7.81
2019-03-10T01:07:03.929Z,7.77
2019-03-10T01:09:30.969Z,7.76
2019-03-10T01:11:58.305Z,7.76
2019-03-10T01:14:25.665Z,7.77
2019-03-10T01:16:52.967Z,7.77
2019-03-10T01:19:20.287Z,7.76
2019-03-10T01:21:47.338Z,7.72
2019-03-10T01:24:14.671Z,7.72
2019-03-10T01:26:41.721Z,7.72
2019-03-10T01:29:08.769Z,7.73
2019-03-10T01:31:36.122Z,7.74
2019-03-10T01:34:03.152Z,7.81
2019-03-10T01:36:30.538Z,7.85
2019-03-10T01:38:57.846Z,7.88
2019-03-10T01:41:24.882Z,7.97
2019-03-10T01:43:51.934Z,8.04
2019-03-10T01:46:18.979Z,8.12
2019-03-10T01:48:46.118Z,8.20
2019-03-10T01:51:13.425Z,8.21
2019-03-10T01:53:40.781Z,8.23
2019-03-10T01:56:07.826Z,8.27
2019-03-10T01:58:35.185Z,8.29
2019-03-10T02:01:02.297Z,8.33
2019-03-10T02:03:29.691Z,8.35
2019-03-10T02:05:56.722Z,8.34
2019-03-10T02:08:24.111Z,8.33
2019-03-10T02:10:51.141Z,8.30
2019-03-10T02:13:18.498Z,8.29
2019-03-10T02:15:45.779Z,8.35
2019-03-10T02:18:12.902Z,8.39
2019-03-10T02:20:39.952Z,8.36
2019-03-10T02:23:07.307Z,8.31
2019-03-10T02:25:34.610Z,8.29
2019-03-10T02:28:02.015Z,8.25
2019-03-10T02:30:29.050Z,8.19
2019-03-10T02:32:56.343Z,8.14
2019-03-10T02:35:23.450Z,8.09
2019-03-10T02:37:50.826Z,8.08
2019-03-10T02:40:18.120Z,8.07
2019-03-10T02:42:45.543Z,8.08
2019-03-10T02:45:12.889Z,8.11
2019-03-10T02:47:40.196Z,8.13
2019-03-10T02:50:07.223Z,8.10
2019-03-10T02:52:35.346Z,8.08
2019-03-10T02:55:02.392Z,8.09
2019-03-10T02:57:29.429Z,8.14
2019-03-10T02:59:56.539Z,8.22
2019-03-10T03:02:23.594Z,8.24
2019-03-10T03:07:53.749Z,8.20
2019-03-10T03:10:21.049Z,8.23
2019-03-10T03:12:48.123Z,8.26
2019-03-10T03:15:15.451Z,8.26
2019-03-10T03:17:42.808Z,8.26
2019-03-10T03:20:10.162Z,8.24
2019-03-10T03:22:37.206Z,8.22
2019-03-10T03:25:04.343Z,8.22
2019-03-10T03:27:31.714Z,8.22
2019-03-10T03:29:58.774Z,8.24
2019-03-10T03:32:26.123Z,8.23
2019-03-10T03:34:53.180Z,8.25
2019-03-10T03:37:20.222Z,8.29
2019-03-10T03:39:47.590Z,8.29
2019-03-10T03:42:14.624Z,8.25
2019-03-10T03:44:41.986Z,8.08
2019-03-10T03:47:09.328Z,7.89
2019-03-10T03:49:36.683Z,7.68
2019-03-10T03:52:04.036Z,7.53
2019-03-10T03:54:31.349Z,7.45
2019-03-10T03:56:58.428Z,7.39
2019-03-10T03:59:25.453Z,7.31
2019-03-10T04:01:52.466Z,7.26
2019-03-10T04:04:19.790Z,7.21
2019-03-10T04:06:46.821Z,7.19
2019-03-10T04:09:14.194Z,7.16
2019-03-10T04:11:41.496Z,7.12
2019-03-10T04:14:08.623Z,7.04
2019-03-10T04:16:35.659Z,6.95
2019-03-10T04:19:03.223Z,6.83
2019-03-10T04:21:30.238Z,6.71
2019-03-10T04:23:57.288Z,6.62
2019-03-10T04:26:25.598Z,6.56
2019-03-10T04:28:52.929Z,6.48
2019-03-10T04:31:20.209Z,6.40
2019-03-10T04:33:47.593Z,6.37
2019-03-10T04:36:14.574Z,6.33
2019-03-10T04:38:41.616Z,6.26
2019-03-10T04:41:08.670Z,6.20
2019-03-10T04:43:35.969Z,6.12
2019-03-10T04:46:03.290Z,6.08
2019-03-10T04:48:30.338Z,6.04
2019-03-10T04:50:57.711Z,6.03
2019-03-10T04:53:25.018Z,6.00
2019-03-10T04:55:52.401Z,5.96
2019-03-10T04:58:19.684Z,5.92
2019-03-10T05:00:46.735Z,5.93
2019-03-10T05:03:13.783Z,5.91
2019-03-10T05:05:40.841Z,5.89
2019-03-10T05:08:08.174Z,5.87
2019-03-10T05:10:35.227Z,5.85
2019-03-10T05:13:02.557Z,5.82
2019-03-10T05:15:29.610Z,5.79
2019-03-10T05:17:56.977Z,5.79
2019-03-10T05:20:24.031Z,5.75
2019-03-10T05:22:51.069Z,5.74
2019-03-10T05:25:18.411Z,5.75
2019-03-10T05:27:45.449Z,5.71
2019-03-10T05:30:12.817Z,5.71
2019-03-10T05:32:41.318Z,5.68
2019-03-10T05:35:08.648Z,5.68
2019-03-10T05:37:35.769Z,5.70
2019-03-10T05:40:03.891Z,5.69
2019-03-10T05:42:31.247Z,5.66
2019-03-10T05:44:58.302Z,5.67
2019-03-10T05:47:25.337Z,5.64
2019-03-10T05:49:52.389Z,5.66
2019-03-10T05:52:19.429Z,5.65
2019-03-10T05:54:46.483Z,5.64
2019-03-10T05:57:13.824Z,5.64
2019-03-10T05:59:40.857Z,5.69
2019-03-10T06:02:08.226Z,5.68
2019-03-10T06:04:44.323Z,5.66
2019-03-10T06:07:11.641Z,5.68
2019-03-10T06:09:39.013Z,5.69
2019-03-10T06:12:06.375Z,5.67
2019-03-10T06:14:33.705Z,5.67
2019-03-10T06:17:00.756Z,5.65
2019-03-10T06:19:27.800Z,5.66
2019-03-10T06:21:55.240Z,5.69
2019-03-10T06:24:22.531Z,5.70
2019-03-10T06:26:49.582Z,5.71
2019-03-10T06:29:16.623Z,5.70
2019-03-10T06:31:43.919Z,5.70
2019-03-10T06:34:12.356Z,5.74
2019-03-10T06:36:39.410Z,5.76
2019-03-10T06:39:06.450Z,5.81
2019-03-10T06:41:33.803Z,5.82
2019-03-10T06:44:01.124Z,5.83
2019-03-10T06:46:28.180Z,5.87
2019-03-10T06:48:55.559Z,5.90
2019-03-10T06:51:22.907Z,5.94
2019-03-10T06:53:50.260Z,6.03
2019-03-10T06:56:17.634Z,6.11
2019-03-10T06:58:44.969Z,6.18
2019-03-10T07:01:12.349Z,6.29
2019-03-10T07:03:39.685Z,6.40
2019-03-10T07:06:06.741Z,6.52
2019-03-10T07:08:33.785Z,6.61
2019-03-10T07:11:01.148Z,6.75
2019-03-10T07:13:28.180Z,6.81
2019-03-10T07:15:55.539Z,6.89
2019-03-10T07:18:28.866Z,6.97
2019-03-10T07:20:58.081Z,7.04
2019-03-10T07:23:36.474Z,7.14
2019-03-10T07:26:04.493Z,7.25
2019-03-10T07:28:31.885Z,7.35
2019-03-10T07:30:58.943Z,7.40
2019-03-10T07:33:26.272Z,7.51
2019-03-10T07:35:53.642Z,7.62
2019-03-10T07:38:20.672Z,7.71
2019-03-10T07:43:38.105Z,7.88
2019-03-10T07:46:05.169Z,8.00
2019-03-10T07:48:32.543Z,8.07
2019-03-10T07:50:59.600Z,8.11
2019-03-10T07:53:28.053Z,8.13
2019-03-10T07:55:55.163Z,8.13
2019-03-10T07:58:22.222Z,8.12
2019-03-10T08:00:49.621Z,8.11
2019-03-10T08:03:16.959Z,8.13
2019-03-10T08:05:44.073Z,8.20
2019-03-10T08:08:11.467Z,8.21
2019-03-10T08:13:10.699Z,8.29
2019-03-10T08:15:37.996Z,8.35
2019-03-10T08:18:05.038Z,8.37
2019-03-10T08:20:32.452Z,8.45
2019-03-10T08:22:59.819Z,8.47
2019-03-10T08:25:29.038Z,8.49
2019-03-10T08:28:01.647Z,8.51
2019-03-10T08:30:25.117Z,8.57
2019-03-10T08:32:52.510Z,8.59
2019-03-10T08:35:19.841Z,8.66
2019-03-10T08:37:47.851Z,8.72
2019-03-10T08:40:15.193Z,8.78
2019-03-10T08:42:42.242Z,8.90
2019-03-10T08:45:09.570Z,8.96
2019-03-10T08:47:36.926Z,8.99
2019-03-10T08:50:03.972Z,8.99
2019-03-10T08:52:31.330Z,8.93
2019-03-10T08:54:58.367Z,8.92
2019-03-10T08:57:25.733Z,8.93
2019-03-10T08:59:52.778Z,8.93
2019-03-10T09:02:20.084Z,8.95
2019-03-10T09:04:48.718Z,8.96
2019-03-10T09:09:50.411Z,9.03
2019-03-10T09:12:17.755Z,9.04
2019-03-10T09:14:45.105Z,9.08
2019-03-10T09:17:12.482Z,9.09
2019-03-10T09:19:39.523Z,9.09
2019-03-10T09:22:06.575Z,9.08
2019-03-10T09:24:33.614Z,9.12
2019-03-10T09:27:00.911Z,9.18
2019-03-10T09:29:28.313Z,9.17
2019-03-10T09:31:55.410Z,9.16
2019-03-10T09:34:22.445Z,9.18
2019-03-10T09:36:49.748Z,9.20
2019-03-10T09:39:16.806Z,9.27
2019-03-10T09:41:43.848Z,9.30
2019-03-10T09:44:11.200Z,9.39
2019-03-10T09:46:54.782Z,9.43
2019-03-10T09:49:22.989Z,9.54
2019-03-10T09:51:52.170Z,9.61
2019-03-10T09:54:19.428Z,9.60
2019-03-10T09:56:57.892Z,9.57
2019-03-10T10:02:09.547Z,9.68
2019-03-10T10:07:15.621Z,9.85
2019-03-10T10:12:33.581Z,9.85
2019-03-10T10:15:03.780Z,9.95
2019-03-10T10:17:31.961Z,9.99
2019-03-10T10:19:59.228Z,10.06
2019-03-10T10:25:30.397Z,10.12
2019-03-10T10:30:44.528Z,10.28
2019-03-10T10:33:11.835Z,10.24
2019-03-10T10:35:50.206Z,10.35
2019-03-10T10:38:19.436Z,10.49
2019-03-10T10:41:05.674Z,10.65
2019-03-10T10:43:36.510Z,10.70
2019-03-10T10:46:06.032Z,10.83
2019-03-10T10:51:13.834Z,11.73
2019-03-10T10:56:21.885Z,11.68
2019-03-10T11:01:26.754Z,11.57
2019-03-10T11:03:56.322Z,11.56
2019-03-10T11:06:25.101Z,11.31
2019-03-10T11:08:52.691Z,11.31
2019-03-10T11:11:22.970Z,11.08
2019-03-10T11:16:46.062Z,11.26
2019-03-10T11:19:16.646Z,10.89
2019-03-10T11:22:00.028Z,11.12
2019-03-10T11:24:28.151Z,11.21
2019-03-10T11:26:56.405Z,10.95
2019-03-10T11:31:59.445Z,11.12
2019-03-10T11:37:05.914Z,11.83
2019-03-10T11:39:37.723Z,11.58
2019-03-10T11:42:17.780Z,11.13
2019-03-10T11:44:45.341Z,10.78
2019-03-10T11:47:16.279Z,10.62
2019-03-10T11:49:43.479Z,10.68
2019-03-10T11:52:12.011Z,11.07
2019-03-10T12:07:55.687Z,12.09
2019-03-10T12:13:14.155Z,11.90
2019-03-10T12:18:31.798Z,11.31
2019-03-10T12:21:02.337Z,11.02
2019-03-10T12:23:34.852Z,11.04
2019-03-10T12:26:01.962Z,11.12
2019-03-10T12:28:45.368Z,11.46
2019-03-10T12:31:13.002Z,12.09
2019-03-10T12:33:41.486Z,12.16
2019-03-10T12:38:42.060Z,11.42
2019-03-10T12:41:12.716Z,11.28
2019-03-10T12:51:44.525Z,11.79
2019-03-10T12:54:12.781Z,12.15
2019-03-10T12:56:44.455Z,12.82
2019-03-10T12:59:14.659Z,12.90
2019-03-10T13:04:36.066Z,12.27
2019-03-10T13:07:05.578Z,11.88
2019-03-10T13:09:42.151Z,11.76
2019-03-10T13:12:09.347Z,11.54
2019-03-10T13:17:14.247Z,11.49
2019-03-10T13:19:43.472Z,11.46
2019-03-10T13:24:52.097Z,11.47
2019-03-10T13:35:17.805Z,11.36
2019-03-10T13:40:35.858Z,14.06
2019-03-10T13:43:04.032Z,13.44
2019-03-10T13:48:22.190Z,11.23
2019-03-10T13:50:56.464Z,11.37
2019-03-10T13:53:25.706Z,11.47
2019-03-10T13:58:38.350Z,11.44
2019-03-10T14:01:05.579Z,11.37
2019-03-10T14:06:14.439Z,11.19
2019-03-10T14:11:14.876Z,11.55
2019-03-10T14:13:42.136Z,11.59
2019-03-10T14:16:15.408Z,11.51
2019-03-10T14:18:42.674Z,11.51
2019-03-10T14:21:18.253Z,11.61
2019-03-10T14:26:19.154Z,11.60
2019-03-10T14:28:50.642Z,11.82
2019-03-10T14:31:19.475Z,11.84
2019-03-10T14:33:46.675Z,11.80
2019-03-10T14:36:16.983Z,11.59
2019-03-10T14:38:45.177Z,11.45
2019-03-10T14:41:18.760Z,11.47
2019-03-10T14:46:35.200Z,11.17
2019-03-10T14:49:02.447Z,11.09
2019-03-10T14:51:33.777Z,11.27
2019-03-10T14:56:43.052Z,11.25
2019-03-10T15:01:43.490Z,11.42
2019-03-10T15:04:14.679Z,11.45
2019-03-10T15:06:43.675Z,11.60
2019-03-10T15:09:15.596Z,11.82
2019-03-10T15:14:18.195Z,12.21
2019-03-10T15:16:53.515Z,12.12
2019-03-10T15:19:23.876Z,12.05
2019-03-10T15:21:55.302Z,12.00
2019-03-10T15:24:22.564Z,11.75
2019-03-10T15:26:51.737Z,11.58
2019-03-10T15:29:18.913Z,11.50
2019-03-10T15:31:46.141Z,11.22
2019-03-10T15:34:13.771Z,11.04
2019-03-10T15:36:51.400Z,10.99
2019-03-10T15:39:18.934Z,11.01
2019-03-10T15:41:45.980Z,10.99
2019-03-10T15:44:15.244Z,10.98
2019-03-10T15:46:45.807Z,10.95
2019-03-10T15:49:14.034Z,10.84
2019-03-10T15:51:43.203Z,10.85
2019-03-10T15:54:10.485Z,10.87
2019-03-10T15:56:38.533Z,10.86
2019-03-10T15:59:08.126Z,10.67
2019-03-10T16:01:39.663Z,10.46
2019-03-10T16:04:11.131Z,10.31
2019-03-10T16:06:39.320Z,10.22
2019-03-10T16:14:26.994Z,10.24
2019-03-10T16:16:57.314Z,10.17
2019-03-10T16:19:30.783Z,10.14
2019-03-10T16:22:04.088Z,10.12
2019-03-10T16:24:31.167Z,10.07
2019-03-10T16:27:17.348Z,10.03
2019-03-10T16:29:44.398Z,10.07
2019-03-10T16:32:19.436Z,9.99
2019-03-10T16:34:46.957Z,9.81
2019-03-10T16:37:18.244Z,9.69
2019-03-10T16:39:45.512Z,9.57
2019-03-10T16:42:19.529Z,9.43
2019-03-10T16:49:59.991Z,9.12
2019-03-10T16:52:28.467Z,9.11
2019-03-10T16:57:50.705Z,8.69
2019-03-10T17:00:19.959Z,8.51
2019-03-10T17:02:48.794Z,8.66
2019-03-10T17:05:16.216Z,8.71
2019-03-10T17:10:40.574Z,8.54
2019-03-10T17:13:07.840Z,8.56
2019-03-10T17:15:35.114Z,8.41
2019-03-10T17:18:10.611Z,8.25
2019-03-10T17:23:18.939Z,8.24
2019-03-10T17:25:48.187Z,8.19
2019-03-10T17:28:16.736Z,8.25
2019-03-10T17:30:44.949Z,8.16
2019-03-10T17:33:18.219Z,8.09
2019-03-10T17:35:45.855Z,8.10
2019-03-10T17:38:20.600Z,7.98
2019-03-10T17:40:47.657Z,7.74
2019-03-10T17:43:23.819Z,7.69
2019-03-10T17:45:55.800Z,7.54
2019-03-10T17:48:24.259Z,7.35
2019-03-10T17:50:51.313Z,7.21
2019-03-10T17:53:25.739Z,7.18
2019-03-10T17:55:54.949Z,7.23
2019-03-10T17:58:37.532Z,7.30
2019-03-10T18:01:04.708Z,7.74
2019-03-10T18:03:41.849Z,7.78
2019-03-10T18:06:08.913Z,7.84
2019-03-10T18:08:39.153Z,7.84
2019-03-10T18:11:07.215Z,7.76
2019-03-10T18:16:26.992Z,7.43
2019-03-10T18:18:57.448Z,7.41
2019-03-10T18:21:29.788Z,7.30
2019-03-10T18:23:56.973Z,7.30
2019-03-10T18:26:24.603Z,7.40
2019-03-10T18:29:06.191Z,7.44
2019-03-10T18:36:44.946Z,7.70
2019-03-10T18:39:12.714Z,7.72
2019-03-10T18:41:39.838Z,7.70
2019-03-10T18:44:23.667Z,7.56
2019-03-10T18:46:51.926Z,7.68
2019-03-10T18:49:19.262Z,7.75
2019-03-10T18:51:51.118Z,7.76
2019-03-10T18:54:18.451Z,7.82
2019-03-10T18:56:50.795Z,7.51
2019-03-10T18:59:24.149Z,6.57
2019-03-10T19:01:52.337Z,5.29
2019-03-10T19:04:20.263Z,4.64
2019-03-10T19:06:52.023Z,4.31
2019-03-10T19:09:19.197Z,4.07
2019-03-10T19:11:48.779Z,3.79
2019-03-10T19:14:20.220Z,3.63
2019-03-10T19:16:50.882Z,3.51
2019-03-10T19:19:24.736Z,3.50
2019-03-10T19:21:51.973Z,3.60
2019-03-10T19:24:19.994Z,3.76
2019-03-10T19:29:20.865Z,4.06
2019-03-10T19:34:21.390Z,4.13
2019-03-10T19:36:57.452Z,4.24
2019-03-10T19:39:23.474Z,4.18
2019-03-10T19:44:27.921Z,3.88
2019-03-10T19:46:55.474Z,3.68
2019-03-10T19:49:26.645Z,3.62
2019-03-10T19:54:26.904Z,3.38
2019-03-10T19:56:56.105Z,3.39
2019-03-10T19:59:26.208Z,3.36
2019-03-10T20:01:57.627Z,3.32
2019-03-10T20:04:31.883Z,3.27
2019-03-10T20:07:03.140Z,3.43
2019-03-10T20:09:30.460Z,3.53
2019-03-10T20:12:01.127Z,3.55
2019-03-10T20:14:30.514Z,3.60
2019-03-10T20:16:57.681Z,3.58
2019-03-10T20:19:34.511Z,3.61
2019-03-10T20:22:03.759Z,3.59
2019-03-10T20:24:40.382Z,3.53
2019-03-10T20:27:07.583Z,3.72
2019-03-10T20:29:38.066Z,3.66
2019-03-10T20:34:47.984Z,3.89
2019-03-10T20:39:49.087Z,4.15
2019-03-10T20:44:50.194Z,4.34
2019-03-10T20:47:18.830Z,4.38
2019-03-10T20:49:50.388Z,4.25
2019-03-10T20:52:18.610Z,4.05
2019-03-10T20:54:55.159Z,3.88
2019-03-10T20:57:26.845Z,3.90
2019-03-10T21:00:01.336Z,3.92
2019-03-10T21:05:16.711Z,4.06
2019-03-10T21:10:21.610Z,3.93
2019-03-10T21:12:51.164Z,3.83
2019-03-10T21:15:18.405Z,3.81
2019-03-10T21:20:27.275Z,4.01
2019-03-10T21:22:55.843Z,3.87
2019-03-10T21:25:23.603Z,3.74
2019-03-10T21:33:10.249Z,3.56
2019-03-10T21:35:38.451Z,3.58
2019-03-10T21:40:43.933Z,3.69
2019-03-10T21:43:11.336Z,3.69
2019-03-10T21:45:38.694Z,3.64
2019-03-10T21:48:05.746Z,3.66
2019-03-10T21:50:32.786Z,3.58
2019-03-10T21:52:59.905Z,3.58
2019-03-10T21:55:27.297Z,3.45
2019-03-10T21:57:54.522Z,3.35
2019-03-10T22:00:21.553Z,3.37
2019-03-10T22:02:48.613Z,3.33
2019-03-10T22:05:16.005Z,3.27
2019-03-10T22:07:43.354Z,3.29
2019-03-10T22:10:10.389Z,3.27
2019-03-10T22:12:38.617Z,3.26
2019-03-10T22:15:06.727Z,3.21
2019-03-10T22:17:35.407Z,3.09
2019-03-10T22:20:02.794Z,3.13
2019-03-10T22:22:30.378Z,3.10
2019-03-10T22:24:57.713Z,3.07
2019-03-10T22:27:24.752Z,3.05
2019-03-10T22:29:51.807Z,2.97
2019-03-10T22:32:18.842Z,2.85
2019-03-10T22:34:45.899Z,2.82
2019-03-10T22:37:22.203Z,2.81
2019-03-10T22:39:49.254Z,2.80
2019-03-10T22:42:16.297Z,2.89
2019-03-10T22:44:43.718Z,2.84
2019-03-10T22:47:11.079Z,3.06
2019-03-10T22:49:38.127Z,3.22
2019-03-10T22:52:05.166Z,3.41
2019-03-10T22:54:33.547Z,3.53
2019-03-10T22:57:00.591Z,3.68
2019-03-10T22:59:27.951Z,3.77
2019-03-10T23:01:55.306Z,3.81
2019-03-10T23:04:22.795Z,3.80
2019-03-10T23:06:50.118Z,3.74
2019-03-10T23:09:17.251Z,3.59
2019-03-10T23:11:44.729Z,3.44
2019-03-10T23:14:12.097Z,3.42
2019-03-10T23:16:39.453Z,3.47
2019-03-10T23:19:06.792Z,3.44
2019-03-10T23:21:33.898Z,3.43
2019-03-10T23:24:01.293Z,3.53
2019-03-10T23:26:28.658Z,3.55
2019-03-10T23:28:55.717Z,3.50
2019-03-10T23:31:22.852Z,3.39
2019-03-10T23:33:49.912Z,3.38
2019-03-10T23:36:17.251Z,3.41
2019-03-10T23:38:44.303Z,3.44
2019-03-10T23:41:11.592Z,3.53
2019-03-10T23:43:39.013Z,3.63
2019-03-10T23:46:06.366Z,3.72
2019-03-10T23:48:33.724Z,3.73
2019-03-10T23:51:01.010Z,3.76
2019-03-10T23:53:28.329Z,3.76
2019-03-10T23:55:55.685Z,3.65
2019-03-10T23:58:24.071Z,3.63
